createdAt,value
2017-09-01T00:00:56.046Z,4.33
2017-09-01T00:03:23.587Z,4.87
2017-09-01T00:05:51.110Z,4.20
2017-09-01T00:08:18.638Z,3.90
2017-09-01T00:10:46.172Z,4.50
2017-09-01T00:13:13.707Z,4.20
2017-09-01T00:15:41.235Z,4.30
2017-09-01T00:18:08.768Z,4.17
2017-09-01T00:20:36.319Z,4.13
2017-09-01T00:23:03.858Z,4.80
2017-09-01T00:25:31.431Z,4.30
2017-09-01T00:27:58.960Z,4.50
2017-09-01T00:30:26.486Z,3.77
2017-09-01T00:32:54.035Z,4.63
2017-09-01T00:35:21.575Z,5.00
2017-09-01T00:37:49.106Z,5.13
2017-09-01T00:40:16.645Z,4.30
2017-09-01T00:42:44.199Z,4.03
2017-09-01T00:45:11.731Z,4.60
2017-09-01T00:47:42.814Z,4.43
2017-09-01T00:50:10.355Z,4.67
2017-09-01T00:52:37.901Z,4.40
2017-09-01T00:55:05.430Z,4.43
2017-09-01T00:57:32.982Z,4.70
2017-09-01T01:00:00.527Z,5.10
2017-09-01T01:02:28.082Z,4.67
2017-09-01T01:04:55.623Z,4.80
2017-09-01T01:07:23.194Z,4.67
2017-09-01T01:09:50.718Z,5.07
2017-09-01T01:12:18.246Z,4.40
2017-09-01T01:14:45.770Z,4.60
2017-09-01T01:17:13.302Z,5.40
2017-09-01T01:19:40.861Z,5.27
2017-09-01T01:22:08.398Z,5.73
2017-09-01T01:24:35.954Z,4.90
2017-09-01T01:27:03.479Z,5.50
2017-09-01T01:29:31.031Z,4.70
2017-09-01T01:31:58.558Z,5.33
2017-09-01T01:34:26.112Z,5.10
2017-09-01T01:36:53.658Z,5.90
2017-09-01T01:39:21.184Z,4.77
2017-09-01T01:41:48.734Z,5.13
2017-09-01T01:44:16.267Z,4.70
2017-09-01T01:46:43.822Z,5.30
2017-09-01T01:49:11.350Z,5.57
2017-09-01T01:51:38.902Z,5.23
2017-09-01T01:54:06.426Z,5.20
2017-09-01T01:56:33.986Z,5.37
2017-09-01T01:59:01.530Z,5.93
2017-09-01T02:01:29.089Z,5.90
2017-09-01T02:03:56.627Z,5.80
2017-09-01T02:06:24.187Z,5.43
2017-09-01T02:08:52.484Z,4.93
2017-09-01T02:11:20.786Z,5.33
2017-09-01T02:13:48.338Z,5.07
2017-09-01T02:16:15.866Z,5.00
2017-09-01T02:18:43.414Z,5.63
2017-09-01T02:21:10.950Z,4.77
2017-09-01T02:23:38.478Z,5.97
2017-09-01T02:26:06.007Z,5.37
2017-09-01T02:28:33.534Z,5.20
2017-09-01T02:31:01.070Z,5.53
2017-09-01T02:33:28.590Z,5.53
2017-09-01T02:35:56.119Z,5.53
2017-09-01T02:38:23.675Z,5.80
2017-09-01T02:40:51.206Z,4.90
2017-09-01T02:43:18.742Z,5.53
2017-09-01T02:45:47.040Z,5.27
2017-09-01T02:48:14.570Z,5.30
2017-09-01T02:50:42.107Z,5.80
2017-09-01T02:53:09.640Z,6.23
2017-09-01T02:55:37.175Z,6.10
2017-09-01T02:58:04.698Z,5.90
2017-09-01T03:00:32.238Z,6.57
2017-09-01T03:02:59.770Z,6.40
2017-09-01T03:05:27.327Z,6.03
2017-09-01T03:07:54.854Z,6.00
2017-09-01T03:10:22.391Z,5.80
2017-09-01T03:12:49.936Z,6.13
2017-09-01T03:15:17.467Z,5.70
2017-09-01T03:17:44.986Z,5.70
2017-09-01T03:20:12.516Z,6.20
2017-09-01T03:22:40.072Z,6.10
2017-09-01T03:25:07.620Z,6.23
2017-09-01T03:27:35.147Z,6.20
2017-09-01T03:30:02.675Z,7.40
2017-09-01T03:32:30.210Z,6.93
2017-09-01T03:34:57.740Z,6.33
2017-09-01T03:37:25.311Z,6.80
2017-09-01T03:39:52.834Z,5.93
2017-09-01T03:42:20.362Z,6.90
2017-09-01T03:44:47.930Z,5.83
2017-09-01T03:47:15.493Z,6.90
2017-09-01T03:49:43.172Z,6.53
2017-09-01T03:52:10.863Z,6.10
2017-09-01T03:54:38.475Z,5.97
2017-09-01T03:57:06.091Z,6.40
2017-09-01T03:59:33.719Z,6.37
2017-09-01T04:02:01.255Z,6.40
2017-09-01T04:04:28.815Z,7.07
2017-09-01T04:06:56.487Z,6.53
2017-09-01T04:09:24.103Z,6.33
2017-09-01T04:11:51.703Z,6.10
2017-09-01T04:14:19.279Z,5.60
2017-09-01T04:19:39.888Z,5.73
2017-09-01T04:22:07.464Z,6.00
2017-09-01T04:24:35.037Z,5.53
2017-09-01T04:27:02.617Z,6.27
2017-09-01T04:29:30.165Z,5.53
2017-09-01T04:31:57.725Z,5.80
2017-09-01T04:34:25.365Z,5.40
2017-09-01T04:36:52.944Z,5.50
2017-09-01T04:39:20.498Z,6.00
2017-09-01T04:41:48.082Z,4.87
2017-09-01T04:44:15.620Z,6.40
2017-09-01T04:46:43.218Z,6.63
2017-09-01T04:49:10.750Z,5.70
2017-09-01T04:51:38.335Z,5.13
2017-09-01T04:54:05.907Z,4.53
2017-09-01T04:56:33.506Z,5.47
2017-09-01T04:59:01.067Z,5.73
2017-09-01T05:01:28.674Z,11.30
2017-09-01T05:03:56.223Z,6.27
2017-09-01T05:06:23.847Z,6.27
2017-09-01T05:08:51.454Z,5.40
2017-09-01T05:11:19.763Z,6.20
2017-09-01T05:13:47.310Z,5.67
2017-09-01T05:16:14.839Z,5.10
2017-09-01T05:18:42.393Z,6.30
2017-09-01T05:21:09.931Z,5.90
2017-09-01T05:23:37.659Z,5.23
2017-09-01T05:26:05.246Z,5.60
2017-09-01T05:28:32.824Z,5.53
2017-09-01T05:31:01.953Z,6.40
2017-09-01T05:33:31.031Z,5.27
2017-09-01T05:35:58.595Z,5.13
2017-09-01T05:38:26.179Z,5.30
2017-09-01T05:40:53.814Z,5.40
2017-09-01T05:43:21.383Z,6.00
2017-09-01T05:45:48.962Z,5.37
2017-09-01T05:48:16.553Z,5.20
2017-09-01T05:50:44.162Z,5.73
2017-09-01T05:53:11.777Z,5.43
2017-09-01T05:55:39.423Z,5.93
2017-09-01T05:58:07.051Z,6.33
2017-09-01T06:00:34.751Z,6.07
2017-09-01T06:03:02.372Z,5.70
2017-09-01T06:05:29.973Z,5.00
2017-09-01T06:07:57.653Z,5.20
2017-09-01T06:10:25.279Z,7.30
2017-09-01T06:12:52.943Z,5.70
2017-09-01T06:15:20.642Z,5.87
2017-09-01T06:17:48.230Z,5.63
2017-09-01T06:20:15.968Z,5.07
2017-09-01T06:22:43.598Z,6.33
2017-09-01T06:25:12.309Z,6.57
2017-09-01T06:27:39.927Z,5.67
2017-09-01T06:30:07.604Z,6.20
2017-09-01T06:32:35.270Z,6.60
2017-09-01T06:35:02.867Z,9.13
2017-09-01T06:37:30.621Z,6.27
2017-09-01T06:39:58.194Z,7.30
2017-09-01T06:42:25.986Z,7.17
2017-09-01T06:44:53.710Z,6.77
2017-09-01T06:47:22.374Z,7.27
2017-09-01T06:52:47.946Z,8.50
2017-09-01T06:55:15.691Z,7.50
2017-09-01T06:57:43.267Z,8.17
2017-09-01T07:00:10.798Z,7.83
2017-09-01T07:02:38.331Z,6.93
2017-09-01T07:05:05.858Z,7.87
2017-09-01T07:07:33.390Z,7.53
2017-09-01T07:10:00.919Z,7.57
2017-09-01T07:12:28.446Z,9.40
2017-09-01T07:14:55.982Z,7.50
2017-09-01T07:17:23.518Z,7.93
2017-09-01T07:19:51.052Z,9.57
2017-09-01T07:22:18.581Z,8.33
2017-09-01T07:24:46.147Z,7.00
2017-09-01T07:27:13.670Z,6.43
2017-09-01T07:29:41.273Z,8.10
2017-09-01T07:32:08.802Z,7.00
2017-09-01T07:34:36.329Z,7.17
2017-09-01T07:37:03.854Z,6.33
2017-09-01T07:39:31.389Z,6.00
2017-09-01T07:41:58.925Z,6.93
2017-09-01T07:44:26.459Z,5.73
2017-09-01T07:46:53.984Z,5.43
2017-09-01T07:49:21.514Z,4.77
2017-09-01T07:51:49.053Z,5.67
2017-09-01T07:54:16.591Z,6.60
2017-09-01T07:56:44.123Z,6.37
2017-09-01T07:59:11.664Z,5.43
2017-09-01T08:01:39.219Z,5.83
2017-09-01T08:04:18.551Z,5.70
2017-09-01T08:06:46.257Z,5.67
2017-09-01T08:09:13.799Z,5.93
2017-09-01T08:11:41.415Z,6.13
2017-09-01T08:14:09.224Z,5.90
2017-09-01T08:16:36.846Z,5.60
2017-09-01T08:19:04.521Z,5.30
2017-09-01T08:21:32.093Z,6.90
2017-09-01T08:23:59.792Z,6.60
2017-09-01T08:26:27.379Z,6.60
2017-09-01T08:28:54.984Z,6.73
2017-09-01T08:31:22.514Z,6.93
2017-09-01T08:33:50.056Z,5.50
2017-09-01T08:36:17.601Z,5.57
2017-09-01T08:38:45.134Z,6.33
2017-09-01T08:41:12.658Z,5.73
2017-09-01T08:43:40.213Z,5.73
2017-09-01T08:46:07.746Z,5.57
2017-09-01T08:48:35.284Z,6.17
2017-09-01T08:51:02.945Z,6.10
2017-09-01T08:53:30.489Z,6.00
2017-09-01T08:55:58.061Z,5.20
2017-09-01T08:58:25.600Z,4.77
2017-09-01T09:00:53.140Z,4.73
2017-09-01T09:03:20.673Z,4.90
2017-09-01T09:05:48.195Z,4.30
2017-09-01T09:08:15.722Z,3.93
2017-09-01T09:10:43.278Z,4.10
2017-09-01T09:13:10.802Z,4.20
2017-09-01T09:15:38.367Z,4.73
2017-09-01T09:18:05.899Z,4.50
2017-09-01T09:20:33.473Z,5.10
2017-09-01T09:23:01.006Z,4.13
2017-09-01T09:25:28.553Z,3.90
2017-09-01T09:27:56.100Z,4.53
2017-09-01T09:30:23.630Z,3.43
2017-09-01T09:32:51.164Z,3.60
2017-09-01T09:35:18.692Z,4.50
2017-09-01T09:37:46.222Z,4.67
2017-09-01T09:40:13.770Z,4.90
2017-09-01T09:42:41.335Z,5.10
2017-09-01T09:45:08.870Z,5.00
2017-09-01T09:47:36.428Z,5.20
2017-09-01T09:50:03.987Z,5.70
2017-09-01T09:52:31.545Z,4.30
2017-09-01T09:54:59.079Z,5.60
2017-09-01T09:57:26.655Z,4.90
2017-09-01T09:59:54.198Z,5.40
2017-09-01T10:02:21.758Z,4.90
2017-09-01T10:04:50.062Z,6.30
2017-09-01T10:07:17.647Z,5.00
2017-09-01T10:09:45.199Z,5.70
2017-09-01T10:12:12.724Z,5.23
2017-09-01T10:14:40.292Z,6.30
2017-09-01T10:17:07.824Z,5.67
2017-09-01T10:19:35.360Z,5.90
2017-09-01T10:22:02.891Z,5.00
2017-09-01T10:24:30.482Z,10.37
2017-09-01T10:26:58.028Z,17.33
2017-09-01T10:29:25.563Z,8.40
2017-09-01T10:31:53.107Z,6.13
2017-09-01T10:34:20.631Z,4.93
2017-09-01T10:36:48.164Z,5.07
2017-09-01T10:39:15.696Z,5.13
2017-09-01T10:41:43.231Z,5.30
2017-09-01T10:44:10.753Z,5.17
2017-09-01T10:46:38.282Z,7.07
2017-09-01T10:49:17.570Z,21.03
2017-09-01T10:51:56.770Z,15.40
2017-09-01T10:54:36.091Z,6.63
2017-09-01T10:57:15.234Z,16.40
2017-09-01T10:59:42.774Z,6.77
2017-09-01T11:02:10.318Z,4.83
2017-09-01T11:04:37.871Z,6.73
2017-09-01T11:07:05.420Z,4.57
2017-09-01T11:09:32.954Z,4.53
2017-09-01T11:12:00.507Z,4.87
2017-09-01T11:14:28.035Z,4.30
2017-09-01T11:16:55.595Z,4.10
2017-09-01T11:19:28.671Z,4.20
2017-09-01T11:22:01.921Z,3.90
2017-09-01T11:24:29.446Z,4.70
2017-09-01T11:26:56.990Z,4.50
2017-09-01T11:29:24.512Z,4.50
2017-09-01T11:31:52.138Z,4.30
2017-09-01T11:34:19.681Z,3.97
2017-09-01T11:36:47.218Z,4.23
2017-09-01T11:39:14.755Z,4.27
2017-09-01T11:41:42.285Z,4.13
2017-09-01T11:44:09.905Z,4.40
2017-09-01T11:46:37.472Z,4.00
2017-09-01T11:49:05.086Z,4.10
2017-09-01T11:51:32.653Z,5.00
2017-09-01T11:54:00.185Z,4.20
2017-09-01T11:56:27.716Z,3.70
2017-09-01T11:58:55.258Z,5.27
2017-09-01T12:01:22.823Z,3.83
2017-09-01T12:03:50.359Z,4.03
2017-09-01T12:06:17.936Z,3.87
2017-09-01T12:08:45.496Z,5.37
2017-09-01T12:11:13.047Z,4.20
2017-09-01T12:13:40.687Z,5.27
2017-09-01T12:16:08.251Z,4.60
2017-09-01T12:18:35.782Z,4.33
2017-09-01T12:21:03.310Z,4.83
2017-09-01T12:23:30.898Z,5.73
2017-09-01T12:25:58.488Z,5.47
2017-09-01T12:28:26.031Z,5.27
2017-09-01T12:30:53.591Z,4.30
2017-09-01T12:33:21.142Z,4.90
2017-09-01T12:35:49.444Z,4.50
2017-09-01T12:38:17.080Z,5.00
2017-09-01T12:40:45.404Z,4.73
2017-09-01T12:43:13.052Z,4.53
2017-09-01T12:45:40.718Z,5.37
2017-09-01T12:48:08.269Z,4.87
2017-09-01T12:50:35.887Z,5.30
2017-09-01T12:53:03.515Z,5.07
2017-09-01T12:55:31.169Z,4.70
2017-09-01T12:57:58.744Z,4.83
2017-09-01T13:00:26.403Z,5.07
2017-09-01T13:02:53.931Z,4.83
2017-09-01T13:05:21.467Z,4.77
2017-09-01T13:07:48.994Z,3.93
2017-09-01T13:10:16.523Z,4.60
2017-09-01T13:12:44.056Z,4.13
2017-09-01T13:15:11.582Z,5.00
2017-09-01T13:17:39.134Z,4.17
2017-09-01T13:20:06.667Z,3.97
2017-09-01T13:22:34.259Z,4.40
2017-09-01T13:25:01.793Z,4.50
2017-09-01T13:27:29.351Z,4.30
2017-09-01T13:29:56.889Z,4.33
2017-09-01T13:32:25.189Z,4.87
2017-09-01T13:34:52.720Z,3.80
2017-09-01T13:37:20.252Z,4.00
2017-09-01T13:39:47.806Z,4.27
2017-09-01T13:42:15.339Z,4.03
2017-09-01T13:44:42.890Z,4.37
2017-09-01T13:47:10.420Z,4.40
2017-09-01T13:49:37.983Z,4.60
2017-09-01T13:52:05.509Z,4.07
2017-09-01T13:54:33.074Z,4.30
2017-09-01T13:57:00.613Z,4.90
2017-09-01T13:59:28.146Z,4.03
2017-09-01T14:01:55.723Z,4.40
2017-09-01T14:04:23.252Z,4.70
2017-09-01T14:06:50.771Z,4.50
2017-09-01T14:09:18.307Z,5.07
2017-09-01T14:11:45.837Z,4.50
2017-09-01T14:14:13.368Z,5.50
2017-09-01T14:16:44.138Z,4.43
2017-09-01T14:19:11.659Z,4.80
2017-09-01T14:21:45.050Z,5.00
2017-09-01T14:24:12.570Z,4.73
2017-09-01T14:26:40.120Z,4.70
2017-09-01T14:29:08.411Z,5.50
2017-09-01T14:31:35.966Z,4.53
2017-09-01T14:34:03.502Z,4.77
2017-09-01T14:36:31.027Z,4.47
2017-09-01T14:38:58.558Z,5.33
2017-09-01T14:41:26.086Z,4.93
2017-09-01T14:43:53.618Z,5.10
2017-09-01T14:46:21.161Z,5.50
2017-09-01T14:48:48.706Z,5.33
2017-09-01T14:51:16.242Z,5.00
2017-09-01T14:53:43.799Z,5.43
2017-09-01T14:56:11.335Z,5.00
2017-09-01T14:58:38.890Z,5.70
2017-09-01T15:01:06.427Z,5.63
2017-09-01T15:03:33.995Z,5.20
2017-09-01T15:06:01.534Z,5.70
2017-09-01T15:08:29.062Z,5.10
2017-09-01T15:10:56.599Z,6.00
2017-09-01T15:13:24.137Z,5.40
2017-09-01T15:15:51.666Z,5.83
2017-09-01T15:18:19.962Z,6.40
2017-09-01T15:20:47.518Z,5.23
2017-09-01T15:23:15.052Z,5.37
2017-09-01T15:25:42.605Z,5.90
2017-09-01T15:28:10.130Z,5.17
2017-09-01T15:30:37.700Z,4.97
2017-09-01T15:33:05.242Z,4.87
2017-09-01T15:35:32.799Z,5.53
2017-09-01T15:38:00.322Z,5.20
2017-09-01T15:40:27.910Z,5.17
2017-09-01T15:42:55.441Z,5.40
2017-09-01T15:45:23.139Z,11.77
2017-09-01T15:47:50.771Z,5.47
2017-09-01T15:50:18.607Z,6.97
2017-09-01T15:52:46.166Z,8.17
2017-09-01T15:55:13.691Z,8.20
2017-09-01T15:57:41.260Z,21.97
2017-09-01T16:00:08.788Z,5.20
2017-09-01T16:02:36.340Z,5.40
2017-09-01T16:05:03.871Z,5.10
2017-09-01T16:07:31.432Z,9.40
2017-09-01T16:09:58.974Z,7.80
2017-09-01T16:12:26.526Z,10.13
2017-09-01T16:14:54.058Z,10.40
2017-09-01T16:17:21.602Z,12.40
2017-09-01T16:19:49.146Z,15.83
2017-09-01T16:22:16.674Z,7.77
2017-09-01T16:24:44.231Z,5.53
2017-09-01T16:27:11.763Z,5.77
2017-09-01T16:29:39.321Z,4.90
2017-09-01T16:32:06.850Z,5.27
2017-09-01T16:34:34.394Z,4.90
2017-09-01T16:37:01.914Z,4.87
2017-09-01T16:39:30.245Z,4.77
2017-09-01T16:41:57.782Z,4.50
2017-09-01T16:44:25.323Z,4.60
2017-09-01T16:46:55.983Z,4.20
2017-09-01T16:49:23.513Z,5.30
2017-09-01T16:51:51.830Z,5.20
2017-09-01T16:54:19.355Z,5.30
2017-09-01T16:56:46.924Z,5.67
2017-09-01T16:59:14.447Z,5.90
2017-09-01T17:04:20.678Z,5.77
2017-09-01T17:06:48.315Z,5.70
2017-09-01T17:09:15.914Z,5.77
2017-09-01T17:11:43.846Z,5.80
2017-09-01T17:14:11.798Z,6.33
2017-09-01T17:16:39.909Z,6.30
2017-09-01T17:19:07.814Z,5.77
2017-09-01T17:21:35.849Z,6.17
2017-09-01T17:24:04.061Z,5.83
2017-09-01T17:26:31.827Z,6.20
2017-09-01T17:28:59.466Z,6.20
2017-09-01T17:31:27.265Z,6.10
2017-09-01T17:33:55.049Z,6.00
2017-09-01T17:36:22.641Z,6.13
2017-09-01T17:38:50.551Z,6.37
2017-09-01T17:41:19.135Z,6.40
2017-09-01T17:43:46.930Z,6.40
2017-09-01T17:46:15.034Z,6.57
2017-09-01T17:48:42.841Z,6.40
2017-09-01T17:51:11.432Z,7.37
2017-09-01T17:53:39.499Z,6.40
2017-09-01T17:56:08.012Z,5.87
2017-09-01T17:58:35.798Z,6.13
2017-09-01T18:01:03.614Z,6.40
2017-09-01T18:03:31.146Z,5.80
2017-09-01T18:05:58.679Z,5.80
2017-09-01T18:08:26.218Z,5.90
2017-09-01T18:10:54.515Z,6.80
2017-09-01T18:13:22.039Z,6.37
2017-09-01T18:15:49.587Z,6.63
2017-09-01T18:18:17.128Z,6.10
2017-09-01T18:20:44.661Z,6.40
2017-09-01T18:23:12.186Z,7.27
2017-09-01T18:25:40.483Z,7.70
2017-09-01T18:28:08.042Z,7.50
2017-09-01T18:30:35.571Z,6.80
2017-09-01T18:33:03.131Z,7.70
2017-09-01T18:35:30.658Z,8.17
2017-09-01T18:37:58.220Z,7.80
2017-09-01T18:40:25.755Z,8.30
2017-09-01T18:42:53.292Z,8.47
2017-09-01T18:45:20.822Z,8.83
2017-09-01T18:47:48.354Z,8.60
2017-09-01T18:50:15.882Z,8.67
2017-09-01T18:52:43.410Z,9.20
2017-09-01T18:55:10.944Z,10.13
2017-09-01T18:57:38.487Z,10.27
2017-09-01T19:00:06.038Z,10.00
2017-09-01T19:02:33.587Z,10.30
2017-09-01T19:05:01.122Z,10.30
2017-09-01T19:07:35.286Z,10.97
2017-09-01T19:10:02.823Z,11.40
2017-09-01T19:12:30.354Z,10.00
2017-09-01T19:14:57.888Z,11.03
2017-09-01T19:17:25.446Z,11.53
2017-09-01T19:19:52.980Z,11.57
2017-09-01T19:22:20.522Z,11.80
2017-09-01T19:24:48.052Z,11.20
2017-09-01T19:27:15.587Z,10.27
2017-09-01T19:29:43.142Z,11.73
2017-09-01T19:32:10.697Z,10.60
2017-09-01T19:34:38.264Z,11.50
2017-09-01T19:37:05.805Z,11.07
2017-09-01T19:39:33.370Z,11.17
2017-09-01T19:42:00.912Z,10.50
2017-09-01T19:44:28.483Z,11.30
2017-09-01T19:46:56.014Z,11.20
2017-09-01T19:49:23.566Z,11.43
2017-09-01T19:51:52.838Z,11.43
2017-09-01T19:54:20.390Z,10.20
2017-09-01T19:56:47.934Z,11.67
2017-09-01T19:59:15.478Z,11.80
2017-09-01T20:01:43.007Z,11.23
2017-09-01T20:04:10.534Z,11.03
2017-09-01T20:06:38.075Z,11.30
2017-09-01T20:09:05.606Z,11.20
2017-09-01T20:11:33.137Z,10.90
2017-09-01T20:14:00.675Z,10.57
2017-09-01T20:16:28.215Z,10.60
2017-09-01T20:18:55.746Z,9.90
2017-09-01T20:21:23.287Z,10.70
2017-09-01T20:23:50.827Z,10.80
2017-09-01T20:26:18.358Z,10.13
2017-09-01T20:28:45.899Z,10.00
2017-09-01T20:31:13.454Z,10.00
2017-09-01T20:33:40.987Z,10.40
2017-09-01T20:36:08.543Z,11.57
2017-09-01T20:38:42.847Z,9.80
2017-09-01T20:41:10.640Z,11.70
2017-09-01T20:43:38.482Z,13.03
2017-09-01T20:46:06.347Z,11.80
2017-09-01T20:48:35.045Z,11.17
2017-09-01T20:51:02.799Z,9.93
2017-09-01T20:53:30.888Z,10.57
2017-09-01T20:55:58.821Z,10.13
2017-09-01T20:58:26.712Z,10.40
2017-09-01T21:00:54.446Z,8.73
2017-09-01T21:03:22.807Z,9.47
2017-09-01T21:05:50.552Z,8.60
2017-09-01T21:08:18.304Z,9.00
2017-09-01T21:10:46.150Z,9.60
2017-09-01T21:13:13.781Z,9.00
2017-09-01T21:15:41.531Z,9.00
2017-09-01T21:18:09.240Z,8.20
2017-09-01T21:20:37.567Z,8.67
2017-09-01T21:23:05.142Z,9.30
2017-09-01T21:25:32.714Z,8.70
2017-09-01T21:28:00.319Z,8.33
2017-09-01T21:30:28.020Z,9.40
2017-09-01T21:32:55.614Z,8.13
2017-09-01T21:35:24.037Z,8.50
2017-09-01T21:37:51.773Z,9.37
2017-09-01T21:40:19.319Z,8.50
2017-09-01T21:42:46.899Z,8.70
2017-09-01T21:45:14.458Z,8.53
2017-09-01T21:47:42.798Z,9.70
2017-09-01T21:50:10.343Z,8.90
2017-09-01T21:52:37.882Z,7.87
2017-09-01T21:55:05.414Z,8.40
2017-09-01T21:57:32.944Z,7.80
2017-09-01T22:00:00.500Z,8.30
2017-09-01T22:02:28.069Z,8.80
2017-09-01T22:04:55.618Z,8.90
2017-09-01T22:07:23.140Z,7.87
2017-09-01T22:09:50.717Z,7.57
2017-09-01T22:12:18.246Z,7.77
2017-09-01T22:14:45.803Z,9.00
2017-09-01T22:17:13.347Z,8.00
2017-09-01T22:19:40.907Z,7.77
2017-09-01T22:22:08.442Z,7.83
2017-09-01T22:24:35.995Z,7.90
2017-09-01T22:27:03.539Z,8.47
2017-09-01T22:29:31.075Z,9.47
2017-09-01T22:31:58.610Z,9.63
2017-09-01T22:34:26.261Z,9.53
2017-09-01T22:36:53.818Z,9.20
2017-09-01T22:39:21.463Z,8.90
2017-09-01T22:41:49.126Z,7.73
2017-09-01T22:44:16.770Z,8.73
2017-09-01T22:46:44.676Z,8.50
2017-09-01T22:49:12.481Z,8.40
2017-09-01T22:51:40.189Z,7.80
2017-09-01T22:54:08.056Z,8.80
2017-09-01T22:56:35.822Z,7.73
2017-09-01T22:59:03.587Z,8.00
2017-09-01T23:01:31.253Z,8.20
2017-09-01T23:03:59.118Z,7.93
2017-09-01T23:06:26.880Z,7.30
2017-09-01T23:08:54.562Z,7.80
2017-09-01T23:11:22.415Z,6.90
2017-09-01T23:13:50.283Z,6.53
2017-09-01T23:16:17.910Z,7.17
2017-09-01T23:18:45.528Z,7.07
2017-09-01T23:21:13.119Z,6.23
2017-09-01T23:23:40.800Z,7.10
2017-09-01T23:26:08.700Z,7.20
2017-09-01T23:28:36.362Z,6.87
2017-09-01T23:31:03.979Z,7.63
2017-09-01T23:33:31.645Z,7.00
2017-09-01T23:35:59.605Z,6.77
2017-09-01T23:38:27.727Z,6.10
2017-09-01T23:40:55.364Z,7.30
2017-09-01T23:43:23.156Z,6.50
2017-09-01T23:45:50.973Z,5.93
2017-09-01T23:48:18.588Z,6.97
2017-09-01T23:50:49.260Z,6.83
2017-09-01T23:53:16.978Z,6.93
2017-09-01T23:55:44.743Z,6.77
2017-09-01T23:58:12.483Z,6.10
